Terminal Aerodrome Forecast
Issued by NWS

Home | Current Version | Previous Version | Text Only | Print | Product List | Glossary On
Versions: 1 2 3 4 5 6 7 8 9 10 11 12 13 14 15 16 17
746
FTUS45 KRIW 301137
TAFWRL
TAF
KWRL 301137Z 3012/0112 VRB06KT P6SM VCSH SCT030 OVC050
     FM301600 VRB05KT 6SM -RA BR SCT015 OVC024
     FM010100 VRB05KT P6SM SCT026 OVC035=

USA.gov is the U.S. government's official web portal to all federal, state and local government web resources and services.